sensor_id;sensor_type;location;lat;lon;timestamp;pressure;altitude;pressure_sealevel;temperature;humidity
3132;BME280;62090;52.330;9.104;2023-04-21T00:00:52;101190.63;;;9.86;97.72
3132;BME280;62090;52.330;9.104;2023-04-21T00:03:22;101186.19;;;9.81;98.12
3132;BME280;62090;52.330;9.104;2023-04-21T00:05:57;101175.56;;;9.67;99.77
3132;BME280;62090;52.330;9.104;2023-04-21T00:08:27;101183.00;;;9.62;100.00
3132;BME280;62090;52.330;9.104;2023-04-21T00:10:57;101161.38;;;9.50;100.00
3132;BME280;62090;52.330;9.104;2023-04-21T00:13:26;101122.25;;;9.22;100.00
3132;BME280;62090;52.330;9.104;2023-04-21T00:15:56;101167.84;;;9.42;100.00
3132;BME280;62090;52.330;9.104;2023-04-21T00:18:26;101168.78;;;9.44;100.00
3132;BME280;62090;52.330;9.104;2023-04-21T00:20:58;101161.88;;;9.41;100.00
3132;BME280;62090;52.330;9.104;2023-04-21T00:23:28;101137.41;;;9.19;100.00
3132;BME280;62090;52.330;9.104;2023-04-21T00:25:58;101157.41;;;9.34;100.00
3132;BME280;62090;52.330;9.104;2023-04-21T00:28:28;101147.88;;;9.28;100.00
3132;BME280;62090;52.330;9.104;2023-04-21T00:30:58;101140.31;;;9.30;100.00
3132;BME280;62090;52.330;9.104;2023-04-21T00:33:28;101139.00;;;9.41;100.00
3132;BME280;62090;52.330;9.104;2023-04-21T00:36:01;101140.00;;;9.45;100.00
3132;BME280;62090;52.330;9.104;2023-04-21T00:38:30;101138.03;;;9.38;100.00
3132;BME280;62090;52.330;9.104;2023-04-21T00:41:00;101126.78;;;9.31;100.00
3132;BME280;62090;52.330;9.104;2023-04-21T00:43:30;101134.69;;;9.39;100.00
3132;BME280;62090;52.330;9.104;2023-04-21T00:46:00;101125.72;;;9.24;100.00
3132;BME280;62090;52.330;9.104;2023-04-21T00:48:30;101072.69;;;8.87;100.00
3132;BME280;62090;52.330;9.104;2023-04-21T00:51:02;101136.56;;;9.20;100.00
3132;BME280;62090;52.330;9.104;2023-04-21T00:53:33;101116.69;;;9.10;100.00
3132;BME280;62090;52.330;9.104;2023-04-21T00:56:05;101115.09;;;9.12;100.00
3132;BME280;62090;52.330;9.104;2023-04-21T00:58:35;101120.25;;;9.14;100.00
3132;BME280;62090;52.330;9.104;2023-04-21T01:01:07;101097.66;;;8.99;100.00
3132;BME280;62090;52.330;9.104;2023-04-21T01:03:37;101112.47;;;9.09;100.00
3132;BME280;62090;52.330;9.104;2023-04-21T01:06:11;101131.47;;;9.20;100.00
3132;BME280;62090;52.330;9.104;2023-04-21T01:08:41;101120.75;;;9.05;100.00
3132;BME280;62090;52.330;9.104;2023-04-21T01:11:14;101132.19;;;9.16;100.00
3132;BME280;62090;52.330;9.104;2023-04-21T01:13:44;101123.75;;;9.17;100.00
3132;BME280;62090;52.330;9.104;2023-04-21T01:16:17;101107.09;;;9.02;100.00
3132;BME280;62090;52.330;9.104;2023-04-21T01:18:47;101104.84;;;9.09;100.00
3132;BME280;62090;52.330;9.104;2023-04-21T01:21:20;101125.00;;;9.28;100.00
3132;BME280;62090;52.330;9.104;2023-04-21T01:23:53;101126.75;;;9.29;100.00
3132;BME280;62090;52.330;9.104;2023-04-21T01:26:23;101130.25;;;9.33;100.00
3132;BME280;62090;52.330;9.104;2023-04-21T01:28:55;101130.91;;;9.27;100.00
3132;BME280;62090;52.330;9.104;2023-04-21T01:31:25;101109.53;;;9.22;100.00
3132;BME280;62090;52.330;9.104;2023-04-21T01:33:55;101081.09;;;9.09;100.00
3132;BME280;62090;52.330;9.104;2023-04-21T01:36:25;101081.97;;;9.11;100.00
3132;BME280;62090;52.330;9.104;2023-04-21T01:38:57;101115.16;;;9.38;100.00
3132;BME280;62090;52.330;9.104;2023-04-21T01:41:28;101119.34;;;9.36;100.00
3132;BME280;62090;52.330;9.104;2023-04-21T01:43:58;101102.00;;;9.25;100.00
3132;BME280;62090;52.330;9.104;2023-04-21T01:46:30;101115.31;;;9.42;100.00
3132;BME280;62090;52.330;9.104;2023-04-21T01:48:59;101102.44;;;9.38;100.00
3132;BME280;62090;52.330;9.104;2023-04-21T01:51:32;101111.22;;;9.46;100.00
3132;BME280;62090;52.330;9.104;2023-04-21T01:54:04;101101.69;;;9.40;100.00
3132;BME280;62090;52.330;9.104;2023-04-21T01:56:34;101097.56;;;9.44;100.00
3132;BME280;62090;52.330;9.104;2023-04-21T01:59:04;101075.91;;;9.31;100.00
3132;BME280;62090;52.330;9.104;2023-04-21T02:01:33;101092.53;;;9.45;100.00
3132;BME280;62090;52.330;9.104;2023-04-21T02:04:04;101098.66;;;9.50;100.00
3132;BME280;62090;52.330;9.104;2023-04-21T02:06:34;101101.22;;;9.52;100.00
3132;BME280;62090;52.330;9.104;2023-04-21T02:09:08;101094.63;;;9.57;100.00
3132;BME280;62090;52.330;9.104;2023-04-21T02:11:38;101096.50;;;9.62;100.00
3132;BME280;62090;52.330;9.104;2023-04-21T02:14:08;101106.94;;;9.70;100.00
3132;BME280;62090;52.330;9.104;2023-04-21T02:16:39;101100.38;;;9.77;100.00
3132;BME280;62090;52.330;9.104;2023-04-21T02:19:09;101112.66;;;9.88;100.00
3132;BME280;62090;52.330;9.104;2023-04-21T02:21:39;101092.69;;;9.75;100.00
3132;BME280;62090;52.330;9.104;2023-04-21T02:24:11;101108.31;;;9.86;100.00
3132;BME280;62090;52.330;9.104;2023-04-21T02:26:41;101122.22;;;9.95;100.00
3132;BME280;62090;52.330;9.104;2023-04-21T02:29:11;101125.63;;;9.96;100.00
3132;BME280;62090;52.330;9.104;2023-04-21T02:31:40;101119.81;;;10.00;100.00
3132;BME280;62090;52.330;9.104;2023-04-21T02:34:28;101128.28;;;9.99;100.00
3132;BME280;62090;52.330;9.104;2023-04-21T02:36:58;101138.41;;;9.97;100.00
3132;BME280;62090;52.330;9.104;2023-04-21T02:39:30;101131.59;;;9.96;100.00
3132;BME280;62090;52.330;9.104;2023-04-21T02:42:00;101122.84;;;9.88;100.00
3132;BME280;62090;52.330;9.104;2023-04-21T02:44:30;101137.19;;;9.86;100.00
3132;BME280;62090;52.330;9.104;2023-04-21T02:47:00;101130.47;;;9.88;100.00
3132;BME280;62090;52.330;9.104;2023-04-21T02:49:29;101075.91;;;9.55;100.00
3132;BME280;62090;52.330;9.104;2023-04-21T02:51:59;101129.34;;;9.80;100.00
3132;BME280;62090;52.330;9.104;2023-04-21T02:54:32;101129.47;;;9.83;100.00
3132;BME280;62090;52.330;9.104;2023-04-21T02:57:02;101110.88;;;9.60;100.00
3132;BME280;62090;52.330;9.104;2023-04-21T02:59:32;101136.81;;;9.75;100.00
3132;BME280;62090;52.330;9.104;2023-04-21T03:02:02;101137.38;;;9.67;100.00
3132;BME280;62090;52.330;9.104;2023-04-21T03:04:32;101135.53;;;9.63;100.00
3132;BME280;62090;52.330;9.104;2023-04-21T03:07:03;101121.56;;;9.52;100.00
3132;BME280;62090;52.330;9.104;2023-04-21T03:09:35;101141.59;;;9.66;100.00
3132;BME280;62090;52.330;9.104;2023-04-21T03:12:05;101133.69;;;9.59;100.00
3132;BME280;62090;52.330;9.104;2023-04-21T03:14:35;101124.03;;;9.49;100.00
3132;BME280;62090;52.330;9.104;2023-04-21T03:17:05;101095.13;;;9.23;100.00
3132;BME280;62090;52.330;9.104;2023-04-21T03:19:35;101122.69;;;9.35;100.00
3132;BME280;62090;52.330;9.104;2023-04-21T03:22:05;101121.53;;;9.26;100.00
3132;BME280;62090;52.330;9.104;2023-04-21T03:24:37;101114.53;;;9.21;100.00
3132;BME280;62090;52.330;9.104;2023-04-21T03:27:07;101094.75;;;9.12;100.00
3132;BME280;62090;52.330;9.104;2023-04-21T03:29:37;101123.84;;;9.20;100.00
3132;BME280;62090;52.330;9.104;2023-04-21T03:32:07;101119.78;;;9.25;100.00
3132;BME280;62090;52.330;9.104;2023-04-21T03:34:37;101113.59;;;9.17;100.00
3132;BME280;62090;52.330;9.104;2023-04-21T03:37:07;101119.47;;;9.16;100.00
3132;BME280;62090;52.330;9.104;2023-04-21T03:39:40;101114.28;;;9.13;100.00
3132;BME280;62090;52.330;9.104;2023-04-21T03:42:10;101097.41;;;8.92;100.00
3132;BME280;62090;52.330;9.104;2023-04-21T03:44:40;101109.56;;;9.00;100.00
3132;BME280;62090;52.330;9.104;2023-04-21T03:47:09;101114.72;;;9.02;100.00
3132;BME280;62090;52.330;9.104;2023-04-21T03:49:39;101101.03;;;8.98;100.00
3132;BME280;62090;52.330;9.104;2023-04-21T03:52:09;101117.97;;;8.99;100.00
3132;BME280;62090;52.330;9.104;2023-04-21T03:54:41;101095.94;;;8.98;100.00
3132;BME280;62090;52.330;9.104;2023-04-21T03:57:11;101115.28;;;8.95;100.00
3132;BME280;62090;52.330;9.104;2023-04-21T03:59:42;101108.97;;;9.07;100.00
3132;BME280;62090;52.330;9.104;2023-04-21T04:02:12;101075.91;;;8.83;100.00
3132;BME280;62090;52.330;9.104;2023-04-21T04:04:42;101114.16;;;9.10;100.00
3132;BME280;62090;52.330;9.104;2023-04-21T04:07:12;101108.13;;;9.07;100.00
3132;BME280;62090;52.330;9.104;2023-04-21T04:09:45;101112.66;;;9.15;100.00
3132;BME280;62090;52.330;9.104;2023-04-21T04:12:15;101117.63;;;9.12;100.00
3132;BME280;62090;52.330;9.104;2023-04-21T04:14:45;101111.63;;;9.10;100.00
3132;BME280;62090;52.330;9.104;2023-04-21T04:17:15;101104.94;;;9.12;100.00
3132;BME280;62090;52.330;9.104;2023-04-21T04:19:44;101107.69;;;9.18;100.00
3132;BME280;62090;52.330;9.104;2023-04-21T04:22:15;101085.53;;;9.14;100.00
3132;BME280;62090;52.330;9.104;2023-04-21T04:24:47;101106.97;;;9.22;100.00
3132;BME280;62090;52.330;9.104;2023-04-21T04:27:17;101098.31;;;9.17;100.00
3132;BME280;62090;52.330;9.104;2023-04-21T04:29:47;101101.41;;;9.09;100.00
3132;BME280;62090;52.330;9.104;2023-04-21T04:32:17;101093.56;;;9.03;100.00
3132;BME280;62090;52.330;9.104;2023-04-21T04:34:47;101100.81;;;9.16;100.00
3132;BME280;62090;52.330;9.104;2023-04-21T04:37:18;101101.56;;;9.13;100.00
3132;BME280;62090;52.330;9.104;2023-04-21T04:39:51;101092.91;;;9.08;100.00
3132;BME280;62090;52.330;9.104;2023-04-21T04:42:22;101081.38;;;8.94;100.00
3132;BME280;62090;52.330;9.104;2023-04-21T04:44:52;101079.75;;;8.96;100.00
3132;BME280;62090;52.330;9.104;2023-04-21T04:47:23;101110.09;;;9.15;100.00
3132;BME280;62090;52.330;9.104;2023-04-21T04:49:53;101096.19;;;9.06;100.00
3132;BME280;62090;52.330;9.104;2023-04-21T04:52:22;101109.47;;;9.21;100.00
3132;BME280;62090;52.330;9.104;2023-04-21T04:54:55;101111.25;;;9.23;100.00
3132;BME280;62090;52.330;9.104;2023-04-21T04:57:25;101104.81;;;9.33;100.00
3132;BME280;62090;52.330;9.104;2023-04-21T04:59:54;101092.53;;;9.45;100.00
3132;BME280;62090;52.330;9.104;2023-04-21T05:02:24;101108.03;;;9.53;100.00
3132;BME280;62090;52.330;9.104;2023-04-21T05:04:54;101090.88;;;9.46;100.00
3132;BME280;62090;52.330;9.104;2023-04-21T05:07:24;101098.34;;;9.66;100.00
3132;BME280;62090;52.330;9.104;2023-04-21T05:09:57;101049.28;;;9.45;100.00
3132;BME280;62090;52.330;9.104;2023-04-21T05:12:27;101106.50;;;9.82;100.00
3132;BME280;62090;52.330;9.104;2023-04-21T05:14:56;101057.28;;;9.56;100.00
3132;BME280;62090;52.330;9.104;2023-04-21T05:17:26;101114.63;;;9.97;100.00
3132;BME280;62090;52.330;9.104;2023-04-21T05:19:57;101117.25;;;9.98;100.00
3132;BME280;62090;52.330;9.104;2023-04-21T05:22:27;101097.47;;;9.91;100.00
3132;BME280;62090;52.330;9.104;2023-04-21T05:24:59;101110.63;;;10.05;100.00
3132;BME280;62090;52.330;9.104;2023-04-21T05:27:29;101103.94;;;10.07;100.00
3132;BME280;62090;52.330;9.104;2023-04-21T05:29:59;101103.88;;;10.05;100.00
3132;BME280;62090;52.330;9.104;2023-04-21T05:32:30;101111.81;;;10.14;100.00
3132;BME280;62090;52.330;9.104;2023-04-21T05:35:00;101105.81;;;10.12;100.00
3132;BME280;62090;52.330;9.104;2023-04-21T05:37:29;101109.09;;;10.10;100.00
3132;BME280;62090;52.330;9.104;2023-04-21T05:40:02;101107.84;;;10.23;100.00
3132;BME280;62090;52.330;9.104;2023-04-21T05:42:32;101105.50;;;10.29;100.00
3132;BME280;62090;52.330;9.104;2023-04-21T05:45:02;101118.97;;;10.25;100.00
3132;BME280;62090;52.330;9.104;2023-04-21T05:47:33;101097.31;;;10.39;100.00
3132;BME280;62090;52.330;9.104;2023-04-21T05:50:03;101108.78;;;10.53;100.00
3132;BME280;62090;52.330;9.104;2023-04-21T05:52:33;101100.16;;;10.48;100.00
3132;BME280;62090;52.330;9.104;2023-04-21T05:55:06;101105.94;;;10.71;100.00
3132;BME280;62090;52.330;9.104;2023-04-21T05:57:36;101101.59;;;10.68;100.00
3132;BME280;62090;52.330;9.104;2023-04-21T06:00:07;101095.97;;;10.78;100.00
3132;BME280;62090;52.330;9.104;2023-04-21T06:02:37;101111.66;;;10.92;100.00
3132;BME280;62090;52.330;9.104;2023-04-21T06:05:07;101111.22;;;11.07;99.97
3132;BME280;62090;52.330;9.104;2023-04-21T06:07:37;101116.56;;;11.14;98.89
3132;BME280;62090;52.330;9.104;2023-04-21T06:10:11;101105.63;;;11.18;97.84
3132;BME280;62090;52.330;9.104;2023-04-21T06:12:41;101114.72;;;11.40;97.07
3132;BME280;62090;52.330;9.104;2023-04-21T06:15:11;101113.56;;;11.60;96.12
3132;BME280;62090;52.330;9.104;2023-04-21T06:17:41;101097.09;;;11.49;94.82
3132;BME280;62090;52.330;9.104;2023-04-21T06:20:11;101108.22;;;11.82;94.20
3132;BME280;62090;52.330;9.104;2023-04-21T06:22:41;101131.13;;;12.14;92.70
3132;BME280;62090;52.330;9.104;2023-04-21T06:25:13;101108.34;;;12.23;91.24
3132;BME280;62090;52.330;9.104;2023-04-21T06:27:43;101110.56;;;12.45;90.42
3132;BME280;62090;52.330;9.104;2023-04-21T06:30:14;101124.41;;;12.55;89.43
3132;BME280;62090;52.330;9.104;2023-04-21T06:32:44;101099.81;;;12.60;89.96
3132;BME280;62090;52.330;9.104;2023-04-21T06:35:14;101093.13;;;12.66;87.90
3132;BME280;62090;52.330;9.104;2023-04-21T06:37:46;101094.50;;;12.91;88.35
3132;BME280;62090;52.330;9.104;2023-04-21T06:40:18;101081.94;;;13.02;85.93
3132;BME280;62090;52.330;9.104;2023-04-21T06:42:48;101110.91;;;13.01;87.03
3132;BME280;62090;52.330;9.104;2023-04-21T06:45:18;101105.53;;;13.29;86.92
3132;BME280;62090;52.330;9.104;2023-04-21T06:47:48;101087.38;;;13.17;86.08
3132;BME280;62090;52.330;9.104;2023-04-21T06:50:18;101090.84;;;13.19;86.33
3132;BME280;62090;52.330;9.104;2023-04-21T06:52:47;101096.53;;;13.48;85.58
3132;BME280;62090;52.330;9.104;2023-04-21T06:55:20;101109.53;;;13.60;84.58
3132;BME280;62090;52.330;9.104;2023-04-21T06:57:49;101101.53;;;13.43;84.98
3132;BME280;62090;52.330;9.104;2023-04-21T07:00:19;101094.44;;;13.29;85.13
3132;BME280;62090;52.330;9.104;2023-04-21T07:02:49;101104.72;;;13.30;85.31
3132;BME280;62090;52.330;9.104;2023-04-21T07:05:19;101099.72;;;13.36;85.17
3132;BME280;62090;52.330;9.104;2023-04-21T07:07:49;101108.50;;;13.50;85.57
3132;BME280;62090;52.330;9.104;2023-04-21T07:10:22;101078.09;;;13.22;85.16
3132;BME280;62090;52.330;9.104;2023-04-21T07:12:51;101087.13;;;13.06;87.61
3132;BME280;62090;52.330;9.104;2023-04-21T07:15:21;101074.03;;;12.90;87.16
3132;BME280;62090;52.330;9.104;2023-04-21T07:17:51;101084.56;;;13.06;88.30
3132;BME280;62090;52.330;9.104;2023-04-21T07:20:21;101091.50;;;13.10;86.50
3132;BME280;62090;52.330;9.104;2023-04-21T07:22:51;101093.25;;;13.11;86.86
3132;BME280;62090;52.330;9.104;2023-04-21T07:25:23;101067.56;;;13.08;87.01
3132;BME280;62090;52.330;9.104;2023-04-21T07:27:53;101088.44;;;13.28;86.37
3132;BME280;62090;52.330;9.104;2023-04-21T07:30:23;101087.78;;;13.37;86.25
3132;BME280;62090;52.330;9.104;2023-04-21T07:32:52;101086.88;;;13.35;86.46
3132;BME280;62090;52.330;9.104;2023-04-21T07:35:22;101082.63;;;13.35;86.18
3132;BME280;62090;52.330;9.104;2023-04-21T07:37:52;101073.03;;;13.25;85.95
3132;BME280;62090;52.330;9.104;2023-04-21T07:40:25;101088.38;;;13.24;86.83
3132;BME280;62090;52.330;9.104;2023-04-21T07:42:56;101078.31;;;13.34;86.26
3132;BME280;62090;52.330;9.104;2023-04-21T07:45:26;101075.09;;;13.43;85.17
3132;BME280;62090;52.330;9.104;2023-04-21T07:47:55;101067.41;;;13.44;85.93
3132;BME280;62090;52.330;9.104;2023-04-21T07:50:25;101071.75;;;13.48;84.55
3132;BME280;62090;52.330;9.104;2023-04-21T07:52:55;101062.38;;;13.49;85.55
3132;BME280;62090;52.330;9.104;2023-04-21T07:55:28;101065.19;;;13.64;84.82
3132;BME280;62090;52.330;9.104;2023-04-21T07:57:58;101029.81;;;13.40;83.93
3132;BME280;62090;52.330;9.104;2023-04-21T08:00:27;101067.13;;;13.77;84.63
3132;BME280;62090;52.330;9.104;2023-04-21T08:02:57;101063.84;;;13.84;84.58
3132;BME280;62090;52.330;9.104;2023-04-21T08:05:27;101053.28;;;13.66;84.62
3132;BME280;62090;52.330;9.104;2023-04-21T08:08:03;101022.31;;;13.51;83.91
3132;BME280;62090;52.330;9.104;2023-04-21T08:10:36;101062.88;;;13.78;83.84
3132;BME280;62090;52.330;9.104;2023-04-21T08:13:06;101051.97;;;13.91;83.59
3132;BME280;62090;52.330;9.104;2023-04-21T08:15:36;101054.03;;;14.13;83.78
3132;BME280;62090;52.330;9.104;2023-04-21T08:18:07;101025.63;;;13.98;81.83
3132;BME280;62090;52.330;9.104;2023-04-21T08:20:37;101055.06;;;14.24;81.48
3132;BME280;62090;52.330;9.104;2023-04-21T08:23:07;101040.66;;;14.32;81.72
3132;BME280;62090;52.330;9.104;2023-04-21T08:25:39;101050.31;;;14.49;81.54
3132;BME280;62090;52.330;9.104;2023-04-21T08:28:09;101032.44;;;14.55;81.20
3132;BME280;62090;52.330;9.104;2023-04-21T08:30:40;101049.81;;;14.77;79.39
3132;BME280;62090;52.330;9.104;2023-04-21T08:33:10;101042.84;;;14.67;79.72
3132;BME280;62090;52.330;9.104;2023-04-21T08:35:40;101048.13;;;14.79;79.36
3132;BME280;62090;52.330;9.104;2023-04-21T08:38:27;101038.56;;;14.66;79.20
3132;BME280;62090;52.330;9.104;2023-04-21T08:41:00;101043.00;;;14.79;77.84
3132;BME280;62090;52.330;9.104;2023-04-21T08:43:32;101037.13;;;14.89;78.97
3132;BME280;62090;52.330;9.104;2023-04-21T08:46:05;101046.00;;;15.15;77.57
3132;BME280;62090;52.330;9.104;2023-04-21T08:48:36;101045.16;;;15.18;76.72
3132;BME280;62090;52.330;9.104;2023-04-21T08:51:07;101049.44;;;15.19;76.40
3132;BME280;62090;52.330;9.104;2023-04-21T08:53:39;101036.78;;;15.39;77.30
3132;BME280;62090;52.330;9.104;2023-04-21T08:56:13;101033.59;;;15.58;75.82
3132;BME280;62090;52.330;9.104;2023-04-21T08:58:42;101030.25;;;15.68;74.39
3132;BME280;62090;52.330;9.104;2023-04-21T09:01:12;101018.28;;;15.72;72.32
3132;BME280;62090;52.330;9.104;2023-04-21T09:03:42;101040.69;;;15.89;73.03
3132;BME280;62090;52.330;9.104;2023-04-21T09:06:12;101038.19;;;16.00;71.40
3132;BME280;62090;52.330;9.104;2023-04-21T09:08:52;101038.25;;;16.06;71.67
3132;BME280;62090;52.330;9.104;2023-04-21T09:11:25;101027.22;;;16.25;71.95
3132;BME280;62090;52.330;9.104;2023-04-21T09:13:56;101006.59;;;16.15;71.26
3132;BME280;62090;52.330;9.104;2023-04-21T09:16:31;100998.88;;;16.16;71.64
3132;BME280;62090;52.330;9.104;2023-04-21T09:19:01;101033.38;;;16.53;70.63
3132;BME280;62090;52.330;9.104;2023-04-21T09:21:31;101025.72;;;16.61;68.25
3132;BME280;62090;52.330;9.104;2023-04-21T09:24:03;101040.38;;;16.78;69.36
3132;BME280;62090;52.330;9.104;2023-04-21T09:26:37;100985.31;;;16.43;69.49
3132;BME280;62090;52.330;9.104;2023-04-21T09:29:07;101040.38;;;16.75;67.13
3132;BME280;62090;52.330;9.104;2023-04-21T09:31:37;101022.34;;;16.69;66.03
3132;BME280;62090;52.330;9.104;2023-04-21T09:34:17;101050.75;;;16.95;66.83
3132;BME280;62090;52.330;9.104;2023-04-21T09:36:47;101033.59;;;17.00;67.47
3132;BME280;62090;52.330;9.104;2023-04-21T09:39:17;101025.81;;;16.85;67.26
3132;BME280;62090;52.330;9.104;2023-04-21T09:42:14;101003.50;;;16.84;66.17
3132;BME280;62090;52.330;9.104;2023-04-21T09:44:43;101031.91;;;17.16;66.43
3132;BME280;62090;52.330;9.104;2023-04-21T09:47:37;100993.31;;;17.23;64.07
3132;BME280;62090;52.330;9.104;2023-04-21T09:50:10;101019.91;;;17.51;63.85
3132;BME280;62090;52.330;9.104;2023-04-21T09:52:43;101007.91;;;17.53;63.79
3132;BME280;62090;52.330;9.104;2023-04-21T09:55:15;101013.94;;;17.78;64.30
3132;BME280;62090;52.330;9.104;2023-04-21T09:57:48;101015.66;;;17.94;62.89
3132;BME280;62090;52.330;9.104;2023-04-21T10:00:22;101007.94;;;17.91;62.70
3132;BME280;62090;52.330;9.104;2023-04-21T10:02:56;101010.47;;;18.05;62.09
3132;BME280;62090;52.330;9.104;2023-04-21T10:05:27;100998.41;;;18.08;61.40
3132;BME280;62090;52.330;9.104;2023-04-21T10:07:57;100998.41;;;18.21;61.21
3132;BME280;62090;52.330;9.104;2023-04-21T10:10:28;100980.31;;;18.31;61.06
3132;BME280;62090;52.330;9.104;2023-04-21T10:13:03;100970.78;;;18.48;60.08
3132;BME280;62090;52.330;9.104;2023-04-21T10:15:36;100990.56;;;18.49;56.37
3132;BME280;62090;52.330;9.104;2023-04-21T10:18:11;100983.69;;;18.48;57.57
3132;BME280;62090;52.330;9.104;2023-04-21T10:20:55;100985.41;;;18.49;55.96
3132;BME280;62090;52.330;9.104;2023-04-21T10:23:29;100992.28;;;18.47;56.24
3132;BME280;62090;52.330;9.104;2023-04-21T10:26:04;100981.97;;;18.47;56.84
3132;BME280;62090;52.330;9.104;2023-04-21T10:28:42;100981.13;;;18.54;55.22
3132;BME280;62090;52.330;9.104;2023-04-21T10:31:17;100954.47;;;18.43;54.77
3132;BME280;62090;52.330;9.104;2023-04-21T10:34:11;100969.94;;;18.55;54.66
3132;BME280;62090;52.330;9.104;2023-04-21T10:36:42;100969.06;;;18.55;54.64
3132;BME280;62090;52.330;9.104;2023-04-21T10:39:25;100965.56;;;18.64;54.93
3132;BME280;62090;52.330;9.104;2023-04-21T10:41:57;100950.88;;;18.75;54.68
3132;BME280;62090;52.330;9.104;2023-04-21T10:44:30;100937.22;;;18.58;53.24
3132;BME280;62090;52.330;9.104;2023-04-21T10:46:59;100926.03;;;18.57;54.55
3132;BME280;62090;52.330;9.104;2023-04-21T10:49:29;100948.22;;;18.90;54.66
3132;BME280;62090;52.330;9.104;2023-04-21T10:52:03;100926.63;;;19.00;52.79
3132;BME280;62090;52.330;9.104;2023-04-21T10:54:41;100929.16;;;19.08;52.31
3132;BME280;62090;52.330;9.104;2023-04-21T10:57:13;100911.94;;;19.05;52.28
3132;BME280;62090;52.330;9.104;2023-04-21T10:59:46;100911.91;;;19.13;51.19
3132;BME280;62090;52.330;9.104;2023-04-21T11:02:17;100923.81;;;19.27;51.24
3132;BME280;62090;52.330;9.104;2023-04-21T11:04:49;100914.31;;;19.34;50.88
3132;BME280;62090;52.330;9.104;2023-04-21T11:07:21;100906.59;;;19.25;50.79
3132;BME280;62090;52.330;9.104;2023-04-21T11:09:56;100910.81;;;19.36;49.64
3132;BME280;62090;52.330;9.104;2023-04-21T11:12:27;100888.38;;;19.41;48.46
3132;BME280;62090;52.330;9.104;2023-04-21T11:15:03;100895.19;;;19.52;48.94
3132;BME280;62090;52.330;9.104;2023-04-21T11:17:33;100904.66;;;19.54;47.53
3132;BME280;62090;52.330;9.104;2023-04-21T11:20:06;100877.09;;;19.53;47.78
3132;BME280;62090;52.330;9.104;2023-04-21T11:22:36;100886.34;;;19.74;48.72
3132;BME280;62090;52.330;9.104;2023-04-21T11:25:15;100849.34;;;19.69;49.13
3132;BME280;62090;52.330;9.104;2023-04-21T11:27:52;100882.59;;;20.01;47.46
3132;BME280;62090;52.330;9.104;2023-04-21T11:30:32;100868.94;;;19.90;46.45
3132;BME280;62090;52.330;9.104;2023-04-21T11:33:02;100862.81;;;19.95;46.89
3132;BME280;62090;52.330;9.104;2023-04-21T11:35:39;100850.81;;;19.93;45.85
3132;BME280;62090;52.330;9.104;2023-04-21T11:38:09;100850.63;;;20.05;46.02
3132;BME280;62090;52.330;9.104;2023-04-21T11:40:45;100847.31;;;19.95;44.06
3132;BME280;62090;52.330;9.104;2023-04-21T11:43:15;100823.28;;;19.87;45.58
3132;BME280;62090;52.330;9.104;2023-04-21T11:45:50;100847.91;;;20.15;44.53
3132;BME280;62090;52.330;9.104;2023-04-21T11:48:19;100801.69;;;19.90;43.14
3132;BME280;62090;52.330;9.104;2023-04-21T11:50:49;100835.75;;;20.22;45.07
3132;BME280;62090;52.330;9.104;2023-04-21T11:53:19;100844.25;;;20.35;44.95
3132;BME280;62090;52.330;9.104;2023-04-21T11:55:49;100810.78;;;20.19;44.27
3132;BME280;62090;52.330;9.104;2023-04-21T11:58:22;100836.47;;;20.35;43.72
3132;BME280;62090;52.330;9.104;2023-04-21T12:00:55;100783.44;;;20.00;43.58
3132;BME280;62090;52.330;9.104;2023-04-21T12:03:25;100829.59;;;20.32;42.84
3132;BME280;62090;52.330;9.104;2023-04-21T12:05:55;100790.88;;;20.23;44.58
3132;BME280;62090;52.330;9.104;2023-04-21T12:08:28;100833.81;;;20.41;42.46
3132;BME280;62090;52.330;9.104;2023-04-21T12:10:58;100839.88;;;20.37;42.69
3132;BME280;62090;52.330;9.104;2023-04-21T12:13:28;100837.28;;;20.40;43.43
3132;BME280;62090;52.330;9.104;2023-04-21T12:16:04;100846.63;;;20.50;43.10
3132;BME280;62090;52.330;9.104;2023-04-21T12:18:35;100833.75;;;20.45;42.31
3132;BME280;62090;52.330;9.104;2023-04-21T12:21:05;100826.84;;;20.43;42.01
3132;BME280;62090;52.330;9.104;2023-04-21T12:23:34;100819.09;;;20.43;42.14
3132;BME280;62090;52.330;9.104;2023-04-21T12:26:05;100829.97;;;20.66;43.38
3132;BME280;62090;52.330;9.104;2023-04-21T12:28:34;100833.50;;;20.62;42.73
3132;BME280;62090;52.330;9.104;2023-04-21T12:31:07;100841.97;;;20.70;41.19
3132;BME280;62090;52.330;9.104;2023-04-21T12:33:37;100820.50;;;20.63;41.49
3132;BME280;62090;52.330;9.104;2023-04-21T12:36:07;100812.66;;;20.68;41.57
3132;BME280;62090;52.330;9.104;2023-04-21T12:38:37;100822.31;;;20.58;41.67
3132;BME280;62090;52.330;9.104;2023-04-21T12:41:07;100831.78;;;20.61;41.84
3132;BME280;62090;52.330;9.104;2023-04-21T12:43:37;100814.66;;;20.51;40.88
3132;BME280;62090;52.330;9.104;2023-04-21T12:46:09;100822.28;;;20.61;41.40
3132;BME280;62090;52.330;9.104;2023-04-21T12:48:39;100817.91;;;20.63;41.09
3132;BME280;62090;52.330;9.104;2023-04-21T12:51:09;100800.81;;;20.52;41.76
3132;BME280;62090;52.330;9.104;2023-04-21T12:53:39;100797.25;;;20.59;41.71
3132;BME280;62090;52.330;9.104;2023-04-21T12:56:08;100768.25;;;20.39;42.22
3132;BME280;62090;52.330;9.104;2023-04-21T12:58:38;100811.84;;;20.66;41.20
3132;BME280;62090;52.330;9.104;2023-04-21T13:01:11;100792.75;;;20.72;43.36
3132;BME280;62090;52.330;9.104;2023-04-21T13:03:41;100815.84;;;20.85;42.02
3132;BME280;62090;52.330;9.104;2023-04-21T13:06:12;100785.78;;;20.77;41.00
3132;BME280;62090;52.330;9.104;2023-04-21T13:08:41;100784.81;;;20.82;41.67
3132;BME280;62090;52.330;9.104;2023-04-21T13:11:11;100798.31;;;20.99;40.78
3132;BME280;62090;52.330;9.104;2023-04-21T13:13:41;100787.06;;;21.00;40.57
3132;BME280;62090;52.330;9.104;2023-04-21T13:16:13;100768.03;;;21.03;40.69
3132;BME280;62090;52.330;9.104;2023-04-21T13:18:44;100773.16;;;21.04;40.80
3132;BME280;62090;52.330;9.104;2023-04-21T13:21:14;100767.84;;;21.14;39.85